createdAt,value
2022-09-12T00:02:05.075Z,7.95
2022-09-12T00:04:33.777Z,6.20
2022-09-12T00:07:02.316Z,8.98
2022-09-12T00:09:30.973Z,8.02
2022-09-12T00:12:00.951Z,9.75
2022-09-12T00:14:29.600Z,5.78
2022-09-12T00:16:59.498Z,7.53
2022-09-12T00:19:28.821Z,6.35
2022-09-12T00:21:57.839Z,5.15
2022-09-12T00:24:26.456Z,6.45
2022-09-12T00:26:55.022Z,4.30
2022-09-12T00:29:25.078Z,5.45
2022-09-12T00:32:18.383Z,9.82
2022-09-12T00:34:47.136Z,7.80
2022-09-12T00:37:15.846Z,8.73
2022-09-12T00:39:44.756Z,10.65
2022-09-12T00:42:13.756Z,7.15
2022-09-12T00:44:50.633Z,7.40
2022-09-12T00:47:24.513Z,8.35
2022-09-12T00:50:00.989Z,6.38
2022-09-12T00:52:34.323Z,6.55
2022-09-12T00:55:08.953Z,6.60
2022-09-12T00:57:41.669Z,15.40
2022-09-12T01:00:17.030Z,6.97
2022-09-12T01:02:47.954Z,8.98
2022-09-12T01:05:16.742Z,7.07
2022-09-12T01:07:48.501Z,7.32
2022-09-12T01:10:18.273Z,12.50
2022-09-12T01:12:47.418Z,7.03
2022-09-12T01:15:17.485Z,12.55
2022-09-12T01:18:00.292Z,11.20
2022-09-12T01:20:45.191Z,12.15
2022-09-12T01:23:58.193Z,8.20
2022-09-12T01:27:03.432Z,23.33
2022-09-12T01:29:57.896Z,8.88
2022-09-12T01:32:35.876Z,12.93
2022-09-12T01:35:16.775Z,10.55
2022-09-12T01:37:54.185Z,18.75
2022-09-12T01:40:29.719Z,10.05
2022-09-12T01:43:05.469Z,32.30
2022-09-12T01:45:40.984Z,5.93
2022-09-12T01:48:18.284Z,5.28
2022-09-12T01:50:52.354Z,6.35
2022-09-12T01:53:24.749Z,5.78
2022-09-12T01:55:58.033Z,8.32
2022-09-12T01:58:30.408Z,8.88
2022-09-12T02:01:04.563Z,6.25
2022-09-12T02:03:41.027Z,5.50
2022-09-12T02:06:12.768Z,15.57
2022-09-12T02:08:46.848Z,16.38
2022-09-12T02:11:15.641Z,9.13
2022-09-12T02:13:49.714Z,7.03
2022-09-12T02:16:23.194Z,5.15
2022-09-12T02:18:57.061Z,12.27
2022-09-12T02:21:28.765Z,13.68
2022-09-12T02:24:01.380Z,12.23
2022-09-12T02:26:35.329Z,9.20
2022-09-12T02:29:05.112Z,6.07
2022-09-12T02:31:39.902Z,7.80
2022-09-12T02:34:24.717Z,7.70
2022-09-12T02:37:00.428Z,7.15
2022-09-12T02:39:29.293Z,7.07
2022-09-12T02:42:00.165Z,8.65
2022-09-12T02:44:30.820Z,7.20
2022-09-12T02:47:03.863Z,8.07
2022-09-12T02:49:34.117Z,7.38
2022-09-12T02:52:03.849Z,6.60
2022-09-12T02:54:33.173Z,7.93
2022-09-12T02:57:01.896Z,7.57
2022-09-12T02:59:30.935Z,8.67
2022-09-12T03:02:26.404Z,9.48
2022-09-12T03:05:07.987Z,8.80
2022-09-12T03:07:51.613Z,6.38
2022-09-12T03:10:26.772Z,8.02
2022-09-12T03:13:09.380Z,9.65
2022-09-12T03:15:50.933Z,12.70
2022-09-12T03:18:30.693Z,26.75
2022-09-12T03:21:05.796Z,14.20
2022-09-12T03:23:39.795Z,19.98
2022-09-12T03:26:16.881Z,18.48
2022-09-12T03:28:48.408Z,19.23
2022-09-12T03:31:19.990Z,30.65
2022-09-12T03:33:48.600Z,13.40
2022-09-12T03:36:23.038Z,20.93
2022-09-12T03:38:51.735Z,7.75
2022-09-12T03:41:20.313Z,9.57
2022-09-12T03:43:49.002Z,8.90
2022-09-12T03:46:17.588Z,10.20
2022-09-12T03:48:46.218Z,8.82
2022-09-12T03:51:14.824Z,8.45
2022-09-12T03:53:44.824Z,7.70
2022-09-12T03:56:13.884Z,8.48
2022-09-12T03:58:42.823Z,6.47
2022-09-12T04:01:13.487Z,10.60
2022-09-12T04:03:42.701Z,7.88
2022-09-12T04:06:13.100Z,8.45
2022-09-12T04:08:43.317Z,7.15
2022-09-12T04:11:15.150Z,8.18
2022-09-12T04:13:45.184Z,8.83
2022-09-12T04:16:15.033Z,14.30
2022-09-12T04:18:43.673Z,14.37
2022-09-12T04:21:14.250Z,13.93
2022-09-12T04:23:43.165Z,9.70
2022-09-12T04:26:14.427Z,7.63
2022-09-12T04:28:43.414Z,7.57
2022-09-12T04:31:15.605Z,6.33
2022-09-12T04:33:44.487Z,6.73
2022-09-12T04:36:16.682Z,8.90
2022-09-12T04:38:46.587Z,19.05
2022-09-12T04:41:18.440Z,11.40
2022-09-12T04:43:48.329Z,7.43
2022-09-12T04:46:19.798Z,10.07
2022-09-12T04:48:52.217Z,12.30
2022-09-12T04:51:25.937Z,5.70
2022-09-12T04:53:57.593Z,5.97
2022-09-12T04:56:28.348Z,10.70
2022-09-12T04:58:59.154Z,9.07
2022-09-12T05:01:29.993Z,6.77
2022-09-12T05:03:59.973Z,7.83
2022-09-12T05:06:30.673Z,14.37
2022-09-12T05:08:59.937Z,16.80
2022-09-12T05:11:53.030Z,8.10
2022-09-12T05:14:20.450Z,6.43
2022-09-12T05:16:49.952Z,6.10
2022-09-12T05:19:18.876Z,8.33
2022-09-12T05:21:47.498Z,6.07
2022-09-12T05:24:16.160Z,13.80
2022-09-12T05:26:46.089Z,10.80
2022-09-12T05:29:14.673Z,7.00
2022-09-12T05:31:43.340Z,6.23
2022-09-12T05:34:12.743Z,6.43
2022-09-12T05:36:41.553Z,7.10
2022-09-12T05:39:10.315Z,7.13
2022-09-12T05:41:39.130Z,6.27
2022-09-12T05:44:14.041Z,5.40
2022-09-12T05:46:44.956Z,5.87
2022-09-12T05:49:14.708Z,4.80
2022-09-12T05:51:45.070Z,5.67
2022-09-12T05:54:17.087Z,5.27
2022-09-12T05:56:46.421Z,8.67
2022-09-12T05:59:18.641Z,10.23
2022-09-12T06:01:47.802Z,6.90
2022-09-12T06:04:16.887Z,9.07
2022-09-12T06:06:47.069Z,9.70
2022-09-12T06:09:17.404Z,9.23
2022-09-12T06:11:47.054Z,6.87
2022-09-12T06:14:19.455Z,6.22
2022-09-12T06:16:48.809Z,6.83
2022-09-12T06:19:19.203Z,5.30
2022-09-12T06:21:49.485Z,5.43
2022-09-12T06:24:18.907Z,7.07
2022-09-12T06:26:48.028Z,7.05
2022-09-12T06:29:19.292Z,5.13
2022-09-12T06:31:47.908Z,5.68
2022-09-12T06:34:17.308Z,5.30
2022-09-12T06:36:47.597Z,5.05
2022-09-12T06:39:18.038Z,4.63
2022-09-12T06:41:47.190Z,5.50
2022-09-12T06:44:19.313Z,5.45
2022-09-12T06:46:48.478Z,5.28
2022-09-12T06:49:17.598Z,6.60
2022-09-12T06:51:46.326Z,6.10
2022-09-12T06:54:16.820Z,6.28
2022-09-12T06:56:45.998Z,8.18
2022-09-12T06:59:14.855Z,5.90
2022-09-12T07:01:44.816Z,7.20
2022-09-12T07:04:14.482Z,8.00
2022-09-12T07:06:44.963Z,7.25
2022-09-12T07:09:17.273Z,6.78
2022-09-12T07:11:46.868Z,6.18
2022-09-12T07:14:15.916Z,7.13
2022-09-12T07:16:46.026Z,6.68
2022-09-12T07:19:14.675Z,6.75
2022-09-12T07:21:43.206Z,6.70
2022-09-12T07:24:11.898Z,8.82
2022-09-12T07:26:42.115Z,7.47
2022-09-12T07:29:35.864Z,10.40
2022-09-12T07:32:06.670Z,8.95
2022-09-12T07:34:35.918Z,9.30
2022-09-12T07:37:04.685Z,10.30
2022-09-12T07:39:33.421Z,10.02
2022-09-12T07:42:01.990Z,9.18
2022-09-12T07:44:30.659Z,8.50
2022-09-12T07:46:59.309Z,8.82
2022-09-12T07:49:30.535Z,13.00
2022-09-12T07:51:59.323Z,9.60
2022-09-12T07:54:27.980Z,11.10
2022-09-12T07:56:56.609Z,9.40
2022-09-12T07:59:41.788Z,9.98
2022-09-12T08:02:17.342Z,11.02
2022-09-12T08:04:48.530Z,10.38
2022-09-12T08:07:18.302Z,10.57
2022-09-12T08:09:47.382Z,12.40
2022-09-12T08:12:17.749Z,12.00
2022-09-12T08:14:46.364Z,12.57
2022-09-12T08:17:15.317Z,15.75
2022-09-12T08:19:44.879Z,15.25
2022-09-12T08:22:15.400Z,17.65
2022-09-12T08:24:44.072Z,19.52
2022-09-12T08:27:13.038Z,22.10
2022-09-12T08:29:41.877Z,24.63
2022-09-12T08:32:10.607Z,21.35
2022-09-12T08:34:39.188Z,20.13
2022-09-12T08:37:07.733Z,19.98
2022-09-12T08:39:37.790Z,18.10
2022-09-12T08:42:07.680Z,18.35
2022-09-12T08:44:56.479Z,16.02
2022-09-12T08:47:29.902Z,14.60
2022-09-12T08:50:06.322Z,14.43
2022-09-12T08:52:40.085Z,16.40
2022-09-12T08:55:32.181Z,16.40
2022-09-12T08:58:01.798Z,13.32
2022-09-12T09:00:38.893Z,14.35
2022-09-12T09:03:44.175Z,13.85
2022-09-12T09:06:24.030Z,12.90
2022-09-12T09:09:02.077Z,13.48
2022-09-12T09:11:43.906Z,13.20
2022-09-12T09:14:49.963Z,11.23
2022-09-12T09:17:25.222Z,12.30
2022-09-12T09:20:00.087Z,9.82
2022-09-12T09:22:39.190Z,10.60
2022-09-12T09:25:14.144Z,9.38
2022-09-12T09:27:50.348Z,10.93
2022-09-12T09:30:21.530Z,9.85
2022-09-12T09:32:53.595Z,9.52
2022-09-12T09:35:31.253Z,8.70
2022-09-12T09:38:16.697Z,7.63
2022-09-12T09:40:51.675Z,9.43
2022-09-12T09:43:24.271Z,8.45
2022-09-12T09:45:54.271Z,8.93
2022-09-12T09:48:27.904Z,7.85
2022-09-12T09:51:00.220Z,6.85
2022-09-12T09:53:36.121Z,6.72
2022-09-12T09:56:11.436Z,6.60
2022-09-12T09:58:42.122Z,7.53
2022-09-12T10:01:16.865Z,7.50
2022-09-12T10:03:52.859Z,8.45
2022-09-12T10:06:34.271Z,6.97
2022-09-12T10:09:18.315Z,7.38
2022-09-12T10:11:47.271Z,7.20
2022-09-12T10:14:38.913Z,7.25
2022-09-12T10:17:24.449Z,6.05
2022-09-12T10:20:10.438Z,5.32
2022-09-12T10:22:47.964Z,4.80
2022-09-12T10:25:19.722Z,6.75
2022-09-12T10:27:55.140Z,8.05
2022-09-12T10:30:28.450Z,6.70
2022-09-12T10:33:00.809Z,5.93
2022-09-12T10:35:31.771Z,9.00
2022-09-12T10:38:03.749Z,5.90
2022-09-12T10:40:36.427Z,6.30
2022-09-12T10:43:18.263Z,5.45
2022-09-12T10:45:48.270Z,5.72
2022-09-12T10:48:28.057Z,10.20
2022-09-12T10:50:57.799Z,8.52
2022-09-12T10:53:33.670Z,6.88
2022-09-12T10:56:11.961Z,5.38
2022-09-12T10:59:04.273Z,5.55
2022-09-12T11:01:44.318Z,7.00
2022-09-12T11:04:30.047Z,8.35
2022-09-12T11:07:27.755Z,6.85
2022-09-12T11:10:03.943Z,5.72
2022-09-12T11:12:38.789Z,5.68
2022-09-12T11:15:23.560Z,5.90
2022-09-12T11:18:01.408Z,6.65
2022-09-12T11:20:44.854Z,5.80
2022-09-12T11:23:39.204Z,6.30
2022-09-12T11:26:20.524Z,6.63
2022-09-12T11:28:57.446Z,5.18
2022-09-12T11:32:00.035Z,5.30
2022-09-12T11:34:38.901Z,5.47
2022-09-12T11:37:24.377Z,5.57
2022-09-12T11:39:55.780Z,4.90
2022-09-12T11:42:32.666Z,5.63
2022-09-12T11:45:09.004Z,6.30
2022-09-12T11:47:38.803Z,5.30
2022-09-12T11:50:21.602Z,6.18
2022-09-12T11:52:53.012Z,7.30
2022-09-12T11:55:27.105Z,5.70
2022-09-12T11:57:57.960Z,5.15
2022-09-12T12:00:31.980Z,5.70
2022-09-12T12:03:10.030Z,7.88
2022-09-12T12:05:47.517Z,5.22
2022-09-12T12:08:16.424Z,5.55
2022-09-12T12:10:52.052Z,5.38
2022-09-12T12:13:24.287Z,4.80
2022-09-12T12:15:56.089Z,4.80
2022-09-12T12:18:26.770Z,4.82
2022-09-12T12:20:57.988Z,5.35
2022-09-12T12:23:29.153Z,5.40
2022-09-12T12:25:59.528Z,6.88
2022-09-12T12:29:01.220Z,5.68
2022-09-12T12:31:29.851Z,5.35
2022-09-12T12:34:21.858Z,5.95
2022-09-12T12:36:51.812Z,5.97
2022-09-12T12:40:01.092Z,4.65
2022-09-12T12:43:26.855Z,5.22
2022-09-12T12:46:13.693Z,5.38
2022-09-12T12:48:56.497Z,4.25
2022-09-12T12:51:34.002Z,4.40
2022-09-12T12:54:09.801Z,4.45
2022-09-12T12:56:42.998Z,5.05
2022-09-12T12:59:19.090Z,5.05
2022-09-12T13:01:54.751Z,5.70
2022-09-12T13:04:27.044Z,6.60
2022-09-12T13:07:07.938Z,4.97
2022-09-12T13:09:46.497Z,4.13
2022-09-12T13:12:22.065Z,5.80
2022-09-12T13:14:58.315Z,4.68
2022-09-12T13:17:33.939Z,5.03
2022-09-12T13:20:30.104Z,4.35
2022-09-12T13:22:59.556Z,4.35
2022-09-12T13:25:33.281Z,4.75
2022-09-12T13:28:18.478Z,4.72
2022-09-12T13:30:49.958Z,4.63
2022-09-12T13:33:22.932Z,7.40
2022-09-12T13:36:23.549Z,5.55
2022-09-12T13:39:09.466Z,4.93
2022-09-12T13:41:57.695Z,5.15
2022-09-12T13:44:28.193Z,5.63
2022-09-12T13:47:01.297Z,4.20
2022-09-12T13:49:35.621Z,4.88
2022-09-12T13:52:07.249Z,4.60
2022-09-12T13:54:39.019Z,5.30
2022-09-12T13:57:27.700Z,4.95
2022-09-12T13:59:57.732Z,4.68
2022-09-12T14:02:29.134Z,4.75
2022-09-12T14:05:12.094Z,4.95
2022-09-12T14:07:52.451Z,4.78
2022-09-12T14:10:27.000Z,4.05
2022-09-12T14:12:58.748Z,5.50
2022-09-12T14:15:29.818Z,6.50
2022-09-12T14:18:01.434Z,4.47
2022-09-12T14:20:32.894Z,4.70
2022-09-12T14:23:03.765Z,4.75
2022-09-12T14:25:39.001Z,4.65
2022-09-12T14:28:14.001Z,5.20
2022-09-12T14:30:42.708Z,4.70
2022-09-12T14:33:20.872Z,4.18
2022-09-12T14:35:51.453Z,5.32
2022-09-12T14:38:25.523Z,5.53
2022-09-12T14:41:02.013Z,5.05
2022-09-12T14:43:34.578Z,6.03
2022-09-12T14:46:06.636Z,3.80
2022-09-12T14:48:38.376Z,4.68
2022-09-12T14:51:07.726Z,5.78
2022-09-12T14:53:38.149Z,4.93
2022-09-12T14:56:11.565Z,5.25
2022-09-12T14:58:42.502Z,3.90
2022-09-12T15:01:28.938Z,5.97
2022-09-12T15:03:57.934Z,4.43
2022-09-12T15:06:30.094Z,4.35
2022-09-12T15:09:00.814Z,4.07
2022-09-12T15:11:30.066Z,4.00
2022-09-12T15:14:00.335Z,4.70
2022-09-12T15:16:28.900Z,5.55
2022-09-12T15:18:57.511Z,4.63
2022-09-12T15:21:26.545Z,4.50
2022-09-12T15:23:55.286Z,4.55
2022-09-12T15:26:27.419Z,4.63
2022-09-12T15:28:56.048Z,3.88
2022-09-12T15:31:28.272Z,3.60
2022-09-12T15:33:58.218Z,4.68
2022-09-12T15:36:28.788Z,3.60
2022-09-12T15:38:57.506Z,3.70
2022-09-12T15:41:30.612Z,4.10
2022-09-12T15:43:59.502Z,5.22
2022-09-12T15:46:29.533Z,3.75
2022-09-12T15:48:58.350Z,7.40
2022-09-12T15:51:27.050Z,5.35
2022-09-12T15:53:55.958Z,4.68
2022-09-12T15:56:24.592Z,5.05
2022-09-12T15:58:59.906Z,3.65
2022-09-12T16:01:30.801Z,5.10
2022-09-12T16:03:59.659Z,5.20
2022-09-12T16:06:33.563Z,4.60
2022-09-12T16:09:03.601Z,4.30
2022-09-12T16:11:33.039Z,5.22
2022-09-12T16:14:01.682Z,4.15
2022-09-12T16:16:31.716Z,5.35
2022-09-12T16:19:00.421Z,6.10
2022-09-12T16:21:29.343Z,6.03
2022-09-12T16:23:57.969Z,4.40
2022-09-12T16:26:26.556Z,4.25
2022-09-12T16:28:58.851Z,4.88
2022-09-12T16:31:28.941Z,5.38
2022-09-12T16:33:58.966Z,6.32
2022-09-12T16:36:27.640Z,4.75
2022-09-12T16:38:56.346Z,4.95
2022-09-12T16:41:26.340Z,5.35
2022-09-12T16:43:55.936Z,4.60
2022-09-12T16:46:27.954Z,4.38
2022-09-12T16:48:59.548Z,4.60
2022-09-12T16:51:31.430Z,5.60
2022-09-12T16:54:00.149Z,7.93
2022-09-12T16:56:29.261Z,8.10
2022-09-12T16:58:57.987Z,6.70
2022-09-12T17:01:27.944Z,5.13
2022-09-12T17:03:58.565Z,5.25
2022-09-12T17:06:29.255Z,5.60
2022-09-12T17:09:02.687Z,7.15
2022-09-12T17:11:33.734Z,9.95
2022-09-12T17:14:05.831Z,12.98
2022-09-12T17:16:36.783Z,11.15
2022-09-12T17:19:06.445Z,19.33
2022-09-12T17:21:36.839Z,19.92
2022-09-12T17:24:05.803Z,15.27
2022-09-12T17:26:34.610Z,16.48
2022-09-12T17:29:03.781Z,10.23
2022-09-12T17:31:33.038Z,10.30
2022-09-12T17:34:03.067Z,12.23
2022-09-12T17:36:32.508Z,5.47
2022-09-12T17:39:03.113Z,6.97
2022-09-12T17:41:32.876Z,7.20
2022-09-12T17:44:03.599Z,5.50
2022-09-12T17:46:34.935Z,6.47
2022-09-12T17:49:05.669Z,6.03
2022-09-12T17:51:34.589Z,6.95
2022-09-12T17:54:08.219Z,6.47
2022-09-12T17:56:38.160Z,7.45
2022-09-12T17:59:08.336Z,5.88
2022-09-12T18:01:54.544Z,6.82
2022-09-12T18:04:23.237Z,7.03
2022-09-12T18:06:52.731Z,6.22
2022-09-12T18:09:25.064Z,8.50
2022-09-12T18:11:54.510Z,5.60
2022-09-12T18:14:23.629Z,5.78
2022-09-12T18:16:52.561Z,8.55
2022-09-12T18:19:21.355Z,8.02
2022-09-12T18:21:50.029Z,6.43
2022-09-12T18:24:19.582Z,9.23
2022-09-12T18:26:50.779Z,10.60
2022-09-12T18:29:20.559Z,8.15
2022-09-12T18:31:50.888Z,7.43
2022-09-12T18:34:20.611Z,7.75
2022-09-12T18:36:51.142Z,7.63
2022-09-12T18:39:24.089Z,7.78
2022-09-12T18:41:57.756Z,7.00
2022-09-12T18:44:26.370Z,8.55
2022-09-12T18:46:54.946Z,6.40
2022-09-12T18:49:24.386Z,7.13
2022-09-12T18:51:53.035Z,8.82
2022-09-12T18:54:21.793Z,7.50
2022-09-12T18:56:50.386Z,7.47
2022-09-12T18:59:20.487Z,7.15
2022-09-12T19:01:50.279Z,8.77
2022-09-12T19:04:19.232Z,6.43
2022-09-12T19:06:48.955Z,6.97
2022-09-12T19:09:20.671Z,6.85
2022-09-12T19:11:50.228Z,7.18
2022-09-12T19:14:23.711Z,8.15
2022-09-12T19:16:52.888Z,6.95
2022-09-12T19:19:22.241Z,7.35
2022-09-12T19:21:51.245Z,10.65
2022-09-12T19:24:21.918Z,7.07
2022-09-12T19:26:51.825Z,8.90
2022-09-12T19:29:21.856Z,7.32
2022-09-12T19:31:50.567Z,7.82
2022-09-12T19:34:19.123Z,7.50
2022-09-12T19:36:47.898Z,11.32
2022-09-12T19:39:17.762Z,7.60
2022-09-12T19:41:46.829Z,9.48
2022-09-12T19:44:15.656Z,9.48
2022-09-12T19:46:45.685Z,8.43
2022-09-12T19:49:14.608Z,6.63
2022-09-12T19:51:43.840Z,7.43
2022-09-12T19:54:12.615Z,7.63
2022-09-12T19:56:41.293Z,8.60
2022-09-12T19:59:09.999Z,7.45
2022-09-12T20:01:38.924Z,7.97
2022-09-12T20:04:09.111Z,6.88
2022-09-12T20:06:37.774Z,9.60
2022-09-12T20:09:06.486Z,6.70
2022-09-12T20:11:35.412Z,6.85
2022-09-12T20:14:04.161Z,10.48
2022-09-12T20:16:33.545Z,8.05
2022-09-12T20:19:06.852Z,7.05
2022-09-12T20:21:37.874Z,8.70
2022-09-12T20:24:08.260Z,7.03
2022-09-12T20:26:37.306Z,8.48
2022-09-12T20:29:06.658Z,12.70
2022-09-12T20:31:36.384Z,9.25
2022-09-12T20:34:05.525Z,8.80
2022-09-12T20:36:34.365Z,10.70
2022-09-12T20:39:04.866Z,7.07
2022-09-12T20:41:35.587Z,7.53
2022-09-12T20:44:04.471Z,8.48
2022-09-12T20:46:33.542Z,9.35
2022-09-12T20:49:02.337Z,7.50
2022-09-12T20:51:31.311Z,8.13
2022-09-12T20:54:01.319Z,7.65
2022-09-12T20:56:32.750Z,8.07
2022-09-12T20:59:02.038Z,7.28
2022-09-12T21:01:31.645Z,8.80
2022-09-12T21:04:01.518Z,10.93
2022-09-12T21:06:31.316Z,7.47
2022-09-12T21:09:00.451Z,8.85
2022-09-12T21:11:30.704Z,7.13
2022-09-12T21:13:59.444Z,8.05
2022-09-12T21:16:28.212Z,8.13
2022-09-12T21:18:58.742Z,7.72
2022-09-12T21:21:27.759Z,7.15
2022-09-12T21:23:59.295Z,8.48
2022-09-12T21:26:28.330Z,6.93
2022-09-12T21:28:58.505Z,8.43
2022-09-12T21:31:27.359Z,8.30
2022-09-12T21:33:56.033Z,8.57
2022-09-12T21:36:25.675Z,6.82
2022-09-12T21:38:54.273Z,8.10
2022-09-12T21:41:22.857Z,8.52
2022-09-12T21:43:51.568Z,8.88
2022-09-12T21:46:21.569Z,7.60
2022-09-12T21:48:50.239Z,11.07
2022-09-12T21:51:18.900Z,7.05
2022-09-12T21:53:47.548Z,8.15
2022-09-12T21:56:16.216Z,7.25
2022-09-12T21:58:45.096Z,6.70
2022-09-12T22:01:13.947Z,6.20
2022-09-12T22:03:44.825Z,6.32
2022-09-12T22:06:14.716Z,9.57
2022-09-12T22:08:43.358Z,8.55
2022-09-12T22:11:12.895Z,8.77
2022-09-12T22:13:43.756Z,11.45
2022-09-12T22:16:13.205Z,6.55
2022-09-12T22:18:43.237Z,8.13
2022-09-12T22:21:15.076Z,9.13
2022-09-12T22:24:01.029Z,8.20
2022-09-12T22:26:41.931Z,7.57
2022-09-12T22:29:11.759Z,6.60
2022-09-12T22:31:41.014Z,7.85
2022-09-12T22:34:11.138Z,8.63
2022-09-12T22:36:39.828Z,10.07
2022-09-12T22:39:08.766Z,7.38
2022-09-12T22:41:37.524Z,8.30
2022-09-12T22:44:06.585Z,12.10
2022-09-12T22:46:35.302Z,7.63
2022-09-12T22:49:04.713Z,7.30
2022-09-12T22:51:35.335Z,7.90
2022-09-12T22:54:05.643Z,7.22
2022-09-12T22:56:34.535Z,8.35
2022-09-12T22:59:03.268Z,8.57
2022-09-12T23:01:32.253Z,5.30
2022-09-12T23:04:01.054Z,8.02
2022-09-12T23:06:29.926Z,4.88
2022-09-12T23:08:59.861Z,6.30
2022-09-12T23:11:28.719Z,5.45
2022-09-12T23:13:57.394Z,5.53
2022-09-12T23:16:28.330Z,6.10
2022-09-12T23:18:57.200Z,7.68
2022-09-12T23:21:25.891Z,6.60
2022-09-12T23:23:56.186Z,6.88
2022-09-12T23:26:28.275Z,5.78
2022-09-12T23:28:58.927Z,6.72
2022-09-12T23:31:30.732Z,9.15
2022-09-12T23:34:01.867Z,8.85
2022-09-12T23:36:31.217Z,6.63
2022-09-12T23:38:59.878Z,10.70
2022-09-12T23:41:30.328Z,8.75
2022-09-12T23:43:59.021Z,8.32
2022-09-12T23:46:27.793Z,8.13
2022-09-12T23:48:56.465Z,8.07
2022-09-12T23:51:25.132Z,8.80
2022-09-12T23:53:53.744Z,9.98
2022-09-12T23:56:23.133Z,7.07
2022-09-12T23:58:53.072Z,8.13
